Patriot — WDC2859 — position and weather

sailwx.info

Track history (hours):
 
Tides and Currents Weather Stations Pressure Air Temp Water Temp Dewpoint Dewpoint Depression Visibility Wind Speed Wind Dir Waves Ship Positions

Patriot

Owner: AMNAV Maritime Corporation, Oakland, CA. More information available from US FCC via Universal Licensing System and Coast Guard Vessel Documentation Center.

Last reported at 2017-Jan-20 11:33 UTC. Time now 2017-Jan-20 12:02 UTC.
Position N 37°49' W 122°19'.

Length 31 m; draft 4.6 m.

Type: Tug. MMSI: 366998680.

Date/timePositionNaut miles runAvg speedWind from/ knotsBaromVisibWave heightAir tempDewpointWater temp
2017-Jan-20 11:33N 37°49' W 122°19'0 0.0
2017-Jan-20 10:33N 37°49' W 122°19'0 0.0
2017-Jan-20 09:33N 37°49' W 122°19'0 0.0
2017-Jan-20 08:33N 37°49' W 122°19'0 0.0
2017-Jan-20 07:33N 37°49' W 122°19'0 0.0
2017-Jan-20 06:33N 37°49' W 122°19'0 0.0
2017-Jan-20 05:33N 37°49' W 122°19'0 0.0
2017-Jan-20 04:33N 37°49' W 122°19'0 0.0
2017-Jan-20 03:33N 37°49' W 122°19'0 0.0
2017-Jan-20 02:33N 37°49' W 122°19'0 0.0
2017-Jan-20 01:34N 37°49' W 122°19'0 0.0
2017-Jan-20 00:33N 37°49' W 122°19'0 0.0
2017-Jan-19 23:33N 37°49' W 122°19'0 0.0
2017-Jan-19 22:33N 37°49' W 122°19'0 0.0
2017-Jan-19 21:33N 37°49' W 122°19'0 0.0
2017-Jan-19 20:33N 37°49' W 122°19'0 0.0
2017-Jan-19 19:33N 37°49' W 122°19'0 0.0
2017-Jan-19 18:34N 37°49' W 122°19'0 0.0
2017-Jan-19 17:33N 37°49' W 122°19'0 0.0
2017-Jan-19 16:33N 37°49' W 122°19'0 0.0
2017-Jan-19 15:33N 37°49' W 122°19'2 1.7
2017-Jan-19 14:33N 37°48' W 122°19'1 0.5
2017-Jan-19 13:33N 37°48' W 122°19'2 1.9
2017-Jan-19 12:33N 37°48' W 122°22'2 1.8
2017-Jan-19 11:33N 37°48' W 122°19'0 0.0
2017-Jan-19 10:33N 37°48' W 122°19'0 0.0
2017-Jan-19 09:33N 37°48' W 122°19'0 0.0
2017-Jan-19 08:34N 37°48' W 122°19'0 0.0
2017-Jan-19 07:33N 37°48' W 122°19'0 0.0
2017-Jan-19 06:33N 37°48' W 122°19'0 0.4
2017-Jan-19 05:34N 37°48' W 122°19'0 0.2
2017-Jan-19 04:34N 37°48' W 122°19'2 1.6
2017-Jan-19 03:33N 37°49' W 122°19'0 0.0
2017-Jan-19 02:33N 37°49' W 122°19'0 0.0
2017-Jan-19 01:33N 37°49' W 122°19'0 0.2
2017-Jan-19 00:33N 37°49' W 122°19'1 1.5
2017-Jan-18 23:33N 37°48' W 122°19'2 1.6
2017-Jan-18 22:33N 37°49' W 122°19'0 0.0
2017-Jan-18 21:34N 37°49' W 122°19'0 0.0
2017-Jan-18 20:34N 37°49' W 122°19'0 0.0
2017-Jan-18 19:34N 37°49' W 122°19'0 0.0
2017-Jan-18 18:33N 37°49' W 122°19'0 0.0
2017-Jan-18 17:33N 37°49' W 122°19'0 0.0
2017-Jan-18 16:33N 37°49' W 122°19'0 0.0
2017-Jan-18 15:33N 37°49' W 122°19'0 0.0
2017-Jan-18 14:33N 37°49' W 122°19'0 0.0
2017-Jan-18 13:33N 37°49' W 122°19'0 0.0
2017-Jan-18 12:33N 37°49' W 122°19'0 0.0
2017-Jan-18 11:33N 37°49' W 122°19'0 0.0
2017-Jan-18 10:33N 37°49' W 122°19'0 0.0
2017-Jan-18 09:33N 37°49' W 122°19'0 0.0
2017-Jan-18 08:33N 37°49' W 122°19'0 0.0
2017-Jan-18 07:33N 37°49' W 122°19'0 0.0
2017-Jan-18 06:33N 37°49' W 122°19'0 0.0
2017-Jan-18 05:33N 37°49' W 122°19'0 0.1
2017-Jan-18 04:33N 37°49' W 122°19'8 7.9
2017-Jan-18 03:33N 37°56' W 122°25'0 0.0
2017-Jan-18 02:32N 37°56' W 122°25'3 3.2
2017-Jan-18 01:33N 37°52' W 122°25'6 6.3
2017-Jan-18 00:33N 37°48' W 122°19'2 2.0
2017-Jan-17 23:33N 37°48' W 122°22'3 2.9
2017-Jan-17 22:33N 37°49' W 122°19'0 0.0
2017-Jan-17 21:34N 37°49' W 122°19'0 0.0
2017-Jan-17 20:33N 37°49' W 122°19'0 0.0
2017-Jan-17 19:33N 37°49' W 122°19'0 0.0
2017-Jan-17 18:33N 37°49' W 122°19'0 0.0
2017-Jan-17 17:33N 37°49' W 122°19'0 0.0
2017-Jan-17 16:33N 37°49' W 122°19'0 0.0
2017-Jan-17 15:34N 37°49' W 122°19'0 0.0
2017-Jan-17 14:33N 37°49' W 122°19'0 0.0
2017-Jan-17 13:33N 37°49' W 122°19'0 0.0
2017-Jan-17 12:33N 37°49' W 122°19'0 0.0
2017-Jan-17 11:34N 37°49' W 122°19'0 0.0
2017-Jan-17 10:33N 37°49' W 122°19'2 1.8
2017-Jan-17 09:33N 37°48' W 122°18'2 1.8
2017-Jan-17 08:33N 37°49' W 122°19'0 0.1
2017-Jan-17 07:33N 37°49' W 122°19'0 0.0
2017-Jan-17 06:33N 37°49' W 122°19'0 0.0
2017-Jan-17 05:33N 37°49' W 122°19'0 0.0
2017-Jan-17 04:33N 37°49' W 122°19'2 1.6
2017-Jan-17 03:34N 37°48' W 122°20'2 1.8
2017-Jan-17 02:33N 37°48' W 122°18'2 2.5
2017-Jan-17 01:33N 37°48' W 122°21'2 1.7
2017-Jan-17 00:34N 37°49' W 122°19'0 0.0
2017-Jan-16 23:33N 37°49' W 122°19'0 0.0
2017-Jan-16 22:33N 37°49' W 122°19'0 0.0
2017-Jan-16 21:33N 37°49' W 122°19'0 0.0
2017-Jan-16 20:33N 37°49' W 122°19'0 0.0
2017-Jan-16 19:33N 37°49' W 122°19'0 0.0
2017-Jan-16 18:33N 37°49' W 122°19'0 0.0
2017-Jan-16 17:33N 37°49' W 122°19'0 0.0
2017-Jan-16 16:33N 37°49' W 122°19'0 0.0
2017-Jan-16 15:33N 37°49' W 122°19'0 0.0
2017-Jan-16 14:32N 37°49' W 122°19'6 6.1
2017-Jan-16 13:33N 37°54' W 122°23'1 1.0
2017-Jan-16 12:33N 37°55' W 122°22'0 0.0
2017-Jan-16 11:33N 37°55' W 122°22'6 5.8
2017-Jan-16 10:32N 38°01' W 122°23'6 0.2
2017-Jan-14 22:33N 38°03' W 122°17'1010.5
2017-Jan-14 21:33N 37°56' W 122°25'3 2.6
2017-Jan-14 20:33N 37°55' W 122°22'0 0.1
2017-Jan-14 19:33N 37°55' W 122°22'0 0.0
2017-Jan-14 18:33N 37°55' W 122°22'0 0.4
2017-Jan-14 17:30N 37°55' W 122°22'0 0.1
2017-Jan-14 16:32N 37°55' W 122°22'0 0.1
2017-Jan-14 15:32N 37°55' W 122°22'7 6.8
2017-Jan-14 14:33N 37°48' W 122°21'2 1.8
2017-Jan-14 13:33N 37°49' W 122°19'0 0.0
2017-Jan-14 12:33N 37°49' W 122°19'0 0.0
2017-Jan-14 11:33N 37°49' W 122°19'0 0.0
2017-Jan-14 10:33N 37°49' W 122°19'0 0.0
2017-Jan-14 09:33N 37°49' W 122°19'0 0.0
2017-Jan-14 08:33N 37°49' W 122°19'0 0.0
2017-Jan-14 07:33N 37°49' W 122°19'0 0.0
2017-Jan-14 06:33N 37°49' W 122°19'0 0.0
2017-Jan-14 05:33N 37°49' W 122°19'0 0.0
2017-Jan-14 04:33N 37°49' W 122°19'0 0.0
2017-Jan-14 03:33N 37°49' W 122°19'0 0.0
2017-Jan-13 23:33N 37°49' W 122°19'0 0.0
2017-Jan-13 22:33N 37°49' W 122°19'0 0.0
2017-Jan-13 21:33N 37°49' W 122°19'0 0.0
2017-Jan-13 20:33N 37°49' W 122°19'2 1.8
2017-Jan-13 19:33N 37°48' W 122°18'0 0.1
2017-Jan-13 18:33N 37°48' W 122°18'1 1.1
2017-Jan-13 17:33N 37°48' W 122°19'1 1.2
2017-Jan-13 16:33N 37°48' W 122°18'2 2.4
2017-Jan-13 15:33N 37°48' W 122°21'0 0.0
2017-Jan-13 14:33N 37°48' W 122°21'1 1.0
2017-Jan-13 13:33N 37°48' W 122°19'1 1.3
2017-Jan-13 12:34N 37°48' W 122°18'1 0.7
2017-Jan-13 11:34N 37°48' W 122°19'2 1.6
2017-Jan-13 10:33N 37°49' W 122°19'0 0.0
2017-Jan-13 09:33N 37°49' W 122°19'0 0.0
2017-Jan-13 08:33N 37°49' W 122°19'0 0.0
2017-Jan-13 07:33N 37°49' W 122°19'0 0.0
2017-Jan-13 06:33N 37°49' W 122°19'0 0.0
2017-Jan-13 05:33N 37°49' W 122°19'0 0.0
2017-Jan-13 04:33N 37°49' W 122°19'0 0.0
2017-Jan-13 03:33N 37°49' W 122°19'0 0.0
2017-Jan-13 02:33N 37°49' W 122°19'0 0.1
2017-Jan-13 01:34N 37°49' W 122°19'2 2.0
2017-Jan-13 00:33N 37°48' W 122°17'1 0.8
2017-Jan-12 23:34N 37°48' W 122°18'2 1.7
2017-Jan-12 22:33N 37°49' W 122°19'0 0.0
2017-Jan-12 21:33N 37°49' W 122°19'0 0.0
2017-Jan-12 20:33N 37°49' W 122°19'0 0.0
2017-Jan-12 19:33N 37°49' W 122°19'0 0.0
2017-Jan-12 18:33N 37°49' W 122°19'0 0.0
2017-Jan-12 17:33N 37°49' W 122°19'0 0.0
2017-Jan-12 16:33N 37°49' W 122°19'1 0.8
2017-Jan-12 15:33N 37°49' W 122°19'0 0.1
2017-Jan-12 14:33N 37°49' W 122°20'0 0.4
2017-Jan-12 13:33N 37°49' W 122°20'0 0.0
2017-Jan-12 12:33N 37°49' W 122°20'1 1.1
2017-Jan-12 11:33N 37°49' W 122°19'0 0.1
2017-Jan-12 10:33N 37°49' W 122°19'0 0.0
2017-Jan-12 09:33N 37°49' W 122°19'0 0.0
2017-Jan-12 08:33N 37°49' W 122°19'0 0.0
2017-Jan-12 07:33N 37°49' W 122°19'0 0.0
2017-Jan-12 06:33N 37°49' W 122°19'0 0.0
2017-Jan-12 05:33N 37°49' W 122°19'0 0.0
2017-Jan-12 04:33N 37°49' W 122°19'0 0.0
2017-Jan-12 03:33N 37°49' W 122°19'1 0.8
2017-Jan-12 02:33N 37°49' W 122°20'0 0.2
2017-Jan-12 01:33N 37°49' W 122°20'1 0.9
2017-Jan-12 00:33N 37°49' W 122°19'0 0.0
2017-Jan-11 23:33N 37°49' W 122°19'0 0.0
2017-Jan-11 22:33N 37°49' W 122°19'0 0.0
2017-Jan-11 21:33N 37°49' W 122°19'2 2.5
2017-Jan-11 20:34N 37°50' W 122°22'5 5.1
2017-Jan-11 19:34N 37°55' W 122°22'2 1.6
2017-Jan-11 18:33N 37°54' W 122°24'0 0.2
2017-Jan-11 17:33N 37°54' W 122°24'1 1.3
2017-Jan-11 16:33N 37°55' W 122°22'1 0.8
2017-Jan-11 15:32N 37°55' W 122°22'1 0.5
2017-Jan-11 14:33N 37°55' W 122°22'0 0.3
2017-Jan-11 13:33N 37°55' W 122°22'0 0.0
2017-Jan-11 12:33N 37°55' W 122°22'0 0.0
2017-Jan-11 11:33N 37°55' W 122°22'3 3.0
2017-Jan-11 10:33N 37°53' W 122°24'7 6.9
2017-Jan-11 09:34N 37°48' W 122°19'2 1.6
2017-Jan-11 08:33N 37°49' W 122°19'0 0.0
2017-Jan-11 07:33N 37°49' W 122°19'0 0.0
2017-Jan-11 06:33N 37°49' W 122°19'0 0.0
2017-Jan-11 05:33N 37°49' W 122°19'0 0.0
2017-Jan-11 04:33N 37°49' W 122°19'0 0.0
2017-Jan-11 03:33N 37°49' W 122°19'0 0.0
2017-Jan-11 02:33N 37°49' W 122°19'0 0.0
2017-Jan-11 01:33N 37°49' W 122°19'2 1.8
2017-Jan-11 00:33N 37°48' W 122°18'0 0.1
2017-Jan-10 23:33N 37°48' W 122°18'3 3.0
2017-Jan-10 22:33N 37°48' W 122°22'3 2.6
2017-Jan-10 21:34N 37°49' W 122°19'0 0.0
2017-Jan-10 20:33N 37°49' W 122°19'0 0.0
2017-Jan-10 19:33N 37°49' W 122°19'0 0.0
2017-Jan-10 18:33N 37°49' W 122°19'0 0.0
2017-Jan-10 17:33N 37°49' W 122°19'0 0.0
2017-Jan-10 16:33N 37°49' W 122°19'0 0.0
2017-Jan-10 15:33N 37°49' W 122°19'1 0.5
2017-Jan-10 14:33N 37°49' W 122°19'1 1.4
2017-Jan-10 13:33N 37°48' W 122°21'1 0.8
2017-Jan-10 12:34N 37°48' W 122°20'1 1.0
2017-Jan-10 11:33N 37°48' W 122°21'  
Track history (hours):
 
Tides and Currents Weather Stations Pressure Air Temp Water Temp Dewpoint Dewpoint Depression Visibility Wind Speed Wind Dir Waves Ship Positions

Patriot

Owner: AMNAV Maritime Corporation, Oakland, CA. More information available from US FCC via Universal Licensing System and Coast Guard Vessel Documentation Center.

Last reported at 2017-Jan-20 11:33 UTC. Time now 2017-Jan-20 12:02 UTC.
Position N 37°49' W 122°19'.

Length 31 m; draft 4.6 m.

Type: Tug. MMSI: 366998680.

Date/timePositionNaut miles runAvg speedWind from/ knotsBaromVisibWave heightAir tempDewpointWater temp
2017-Jan-20 11:33N 37°49' W 122°19'0 0.0
2017-Jan-20 10:33N 37°49' W 122°19'0 0.0
2017-Jan-20 09:33N 37°49' W 122°19'0 0.0
2017-Jan-20 08:33N 37°49' W 122°19'0 0.0
2017-Jan-20 07:33N 37°49' W 122°19'0 0.0
2017-Jan-20 06:33N 37°49' W 122°19'0 0.0
2017-Jan-20 05:33N 37°49' W 122°19'0 0.0
2017-Jan-20 04:33N 37°49' W 122°19'0 0.0
2017-Jan-20 03:33N 37°49' W 122°19'0 0.0
2017-Jan-20 02:33N 37°49' W 122°19'0 0.0
2017-Jan-20 01:34N 37°49' W 122°19'0 0.0
2017-Jan-20 00:33N 37°49' W 122°19'0 0.0
2017-Jan-19 23:33N 37°49' W 122°19'0 0.0
2017-Jan-19 22:33N 37°49' W 122°19'0 0.0
2017-Jan-19 21:33N 37°49' W 122°19'0 0.0
2017-Jan-19 20:33N 37°49' W 122°19'0 0.0
2017-Jan-19 19:33N 37°49' W 122°19'0 0.0
2017-Jan-19 18:34N 37°49' W 122°19'0 0.0
2017-Jan-19 17:33N 37°49' W 122°19'0 0.0
2017-Jan-19 16:33N 37°49' W 122°19'0 0.0
2017-Jan-19 15:33N 37°49' W 122°19'2 1.7
2017-Jan-19 14:33N 37°48' W 122°19'1 0.5
2017-Jan-19 13:33N 37°48' W 122°19'2 1.9
2017-Jan-19 12:33N 37°48' W 122°22'2 1.8
2017-Jan-19 11:33N 37°48' W 122°19'0 0.0
2017-Jan-19 10:33N 37°48' W 122°19'0 0.0
2017-Jan-19 09:33N 37°48' W 122°19'0 0.0
2017-Jan-19 08:34N 37°48' W 122°19'0 0.0
2017-Jan-19 07:33N 37°48' W 122°19'0 0.0
2017-Jan-19 06:33N 37°48' W 122°19'0 0.4
2017-Jan-19 05:34N 37°48' W 122°19'0 0.2
2017-Jan-19 04:34N 37°48' W 122°19'2 1.6
2017-Jan-19 03:33N 37°49' W 122°19'0 0.0
2017-Jan-19 02:33N 37°49' W 122°19'0 0.0
2017-Jan-19 01:33N 37°49' W 122°19'0 0.2
2017-Jan-19 00:33N 37°49' W 122°19'1 1.5
2017-Jan-18 23:33N 37°48' W 122°19'2 1.6
2017-Jan-18 22:33N 37°49' W 122°19'0 0.0
2017-Jan-18 21:34N 37°49' W 122°19'0 0.0
2017-Jan-18 20:34N 37°49' W 122°19'0 0.0
2017-Jan-18 19:34N 37°49' W 122°19'0 0.0
2017-Jan-18 18:33N 37°49' W 122°19'0 0.0
2017-Jan-18 17:33N 37°49' W 122°19'0 0.0
2017-Jan-18 16:33N 37°49' W 122°19'0 0.0
2017-Jan-18 15:33N 37°49' W 122°19'0 0.0
2017-Jan-18 14:33N 37°49' W 122°19'0 0.0
2017-Jan-18 13:33N 37°49' W 122°19'0 0.0
2017-Jan-18 12:33N 37°49' W 122°19'0 0.0
2017-Jan-18 11:33N 37°49' W 122°19'0 0.0
2017-Jan-18 10:33N 37°49' W 122°19'0 0.0
2017-Jan-18 09:33N 37°49' W 122°19'0 0.0
2017-Jan-18 08:33N 37°49' W 122°19'0 0.0
2017-Jan-18 07:33N 37°49' W 122°19'0 0.0
2017-Jan-18 06:33N 37°49' W 122°19'0 0.0
2017-Jan-18 05:33N 37°49' W 122°19'0 0.1
2017-Jan-18 04:33N 37°49' W 122°19'8 7.9
2017-Jan-18 03:33N 37°56' W 122°25'0 0.0
2017-Jan-18 02:32N 37°56' W 122°25'3 3.2
2017-Jan-18 01:33N 37°52' W 122°25'6 6.3
2017-Jan-18 00:33N 37°48' W 122°19'2 2.0
2017-Jan-17 23:33N 37°48' W 122°22'3 2.9
2017-Jan-17 22:33N 37°49' W 122°19'0 0.0
2017-Jan-17 21:34N 37°49' W 122°19'0 0.0
2017-Jan-17 20:33N 37°49' W 122°19'0 0.0
2017-Jan-17 19:33N 37°49' W 122°19'0 0.0
2017-Jan-17 18:33N 37°49' W 122°19'0 0.0
2017-Jan-17 17:33N 37°49' W 122°19'0 0.0
2017-Jan-17 16:33N 37°49' W 122°19'0 0.0
2017-Jan-17 15:34N 37°49' W 122°19'0 0.0
2017-Jan-17 14:33N 37°49' W 122°19'0 0.0
2017-Jan-17 13:33N 37°49' W 122°19'0 0.0
2017-Jan-17 12:33N 37°49' W 122°19'0 0.0
2017-Jan-17 11:34N 37°49' W 122°19'0 0.0
2017-Jan-17 10:33N 37°49' W 122°19'2 1.8
2017-Jan-17 09:33N 37°48' W 122°18'2 1.8
2017-Jan-17 08:33N 37°49' W 122°19'0 0.1
2017-Jan-17 07:33N 37°49' W 122°19'0 0.0
2017-Jan-17 06:33N 37°49' W 122°19'0 0.0
2017-Jan-17 05:33N 37°49' W 122°19'0 0.0
2017-Jan-17 04:33N 37°49' W 122°19'2 1.6
2017-Jan-17 03:34N 37°48' W 122°20'2 1.8
2017-Jan-17 02:33N 37°48' W 122°18'2 2.5
2017-Jan-17 01:33N 37°48' W 122°21'2 1.7
2017-Jan-17 00:34N 37°49' W 122°19'0 0.0
2017-Jan-16 23:33N 37°49' W 122°19'0 0.0
2017-Jan-16 22:33N 37°49' W 122°19'0 0.0
2017-Jan-16 21:33N 37°49' W 122°19'0 0.0
2017-Jan-16 20:33N 37°49' W 122°19'0 0.0
2017-Jan-16 19:33N 37°49' W 122°19'0 0.0
2017-Jan-16 18:33N 37°49' W 122°19'0 0.0
2017-Jan-16 17:33N 37°49' W 122°19'0 0.0
2017-Jan-16 16:33N 37°49' W 122°19'0 0.0
2017-Jan-16 15:33N 37°49' W 122°19'0 0.0
2017-Jan-16 14:32N 37°49' W 122°19'6 6.1
2017-Jan-16 13:33N 37°54' W 122°23'1 1.0
2017-Jan-16 12:33N 37°55' W 122°22'0 0.0
2017-Jan-16 11:33N 37°55' W 122°22'6 5.8
2017-Jan-16 10:32N 38°01' W 122°23'6 0.2
2017-Jan-14 22:33N 38°03' W 122°17'1010.5
2017-Jan-14 21:33N 37°56' W 122°25'3 2.6
2017-Jan-14 20:33N 37°55' W 122°22'0 0.1
2017-Jan-14 19:33N 37°55' W 122°22'0 0.0
2017-Jan-14 18:33N 37°55' W 122°22'0 0.4
2017-Jan-14 17:30N 37°55' W 122°22'0 0.1
2017-Jan-14 16:32N 37°55' W 122°22'0 0.1
2017-Jan-14 15:32N 37°55' W 122°22'7 6.8
2017-Jan-14 14:33N 37°48' W 122°21'2 1.8
2017-Jan-14 13:33N 37°49' W 122°19'0 0.0
2017-Jan-14 12:33N 37°49' W 122°19'0 0.0
2017-Jan-14 11:33N 37°49' W 122°19'0 0.0
2017-Jan-14 10:33N 37°49' W 122°19'0 0.0
2017-Jan-14 09:33N 37°49' W 122°19'0 0.0
2017-Jan-14 08:33N 37°49' W 122°19'0 0.0
2017-Jan-14 07:33N 37°49' W 122°19'0 0.0
2017-Jan-14 06:33N 37°49' W 122°19'0 0.0
2017-Jan-14 05:33N 37°49' W 122°19'0 0.0
2017-Jan-14 04:33N 37°49' W 122°19'0 0.0
2017-Jan-14 03:33N 37°49' W 122°19'0 0.0
2017-Jan-13 23:33N 37°49' W 122°19'0 0.0
2017-Jan-13 22:33N 37°49' W 122°19'0 0.0
2017-Jan-13 21:33N 37°49' W 122°19'0 0.0
2017-Jan-13 20:33N 37°49' W 122°19'2 1.8
2017-Jan-13 19:33N 37°48' W 122°18'0 0.1
2017-Jan-13 18:33N 37°48' W 122°18'1 1.1
2017-Jan-13 17:33N 37°48' W 122°19'1 1.2
2017-Jan-13 16:33N 37°48' W 122°18'2 2.4
2017-Jan-13 15:33N 37°48' W 122°21'0 0.0
2017-Jan-13 14:33N 37°48' W 122°21'1 1.0
2017-Jan-13 13:33N 37°48' W 122°19'1 1.3
2017-Jan-13 12:34N 37°48' W 122°18'1 0.7
2017-Jan-13 11:34N 37°48' W 122°19'2 1.6
2017-Jan-13 10:33N 37°49' W 122°19'0 0.0
2017-Jan-13 09:33N 37°49' W 122°19'0 0.0
2017-Jan-13 08:33N 37°49' W 122°19'0 0.0
2017-Jan-13 07:33N 37°49' W 122°19'0 0.0
2017-Jan-13 06:33N 37°49' W 122°19'0 0.0
2017-Jan-13 05:33N 37°49' W 122°19'0 0.0
2017-Jan-13 04:33N 37°49' W 122°19'0 0.0
2017-Jan-13 03:33N 37°49' W 122°19'0 0.0
2017-Jan-13 02:33N 37°49' W 122°19'0 0.1
2017-Jan-13 01:34N 37°49' W 122°19'2 2.0
2017-Jan-13 00:33N 37°48' W 122°17'1 0.8
2017-Jan-12 23:34N 37°48' W 122°18'2 1.7
2017-Jan-12 22:33N 37°49' W 122°19'0 0.0
2017-Jan-12 21:33N 37°49' W 122°19'0 0.0
2017-Jan-12 20:33N 37°49' W 122°19'0 0.0
2017-Jan-12 19:33N 37°49' W 122°19'0 0.0
2017-Jan-12 18:33N 37°49' W 122°19'0 0.0
2017-Jan-12 17:33N 37°49' W 122°19'0 0.0
2017-Jan-12 16:33N 37°49' W 122°19'1 0.8
2017-Jan-12 15:33N 37°49' W 122°19'0 0.1
2017-Jan-12 14:33N 37°49' W 122°20'0 0.4
2017-Jan-12 13:33N 37°49' W 122°20'0 0.0
2017-Jan-12 12:33N 37°49' W 122°20'1 1.1
2017-Jan-12 11:33N 37°49' W 122°19'0 0.1
2017-Jan-12 10:33N 37°49' W 122°19'0 0.0
2017-Jan-12 09:33N 37°49' W 122°19'0 0.0
2017-Jan-12 08:33N 37°49' W 122°19'0 0.0
2017-Jan-12 07:33N 37°49' W 122°19'0 0.0
2017-Jan-12 06:33N 37°49' W 122°19'0 0.0
2017-Jan-12 05:33N 37°49' W 122°19'0 0.0
2017-Jan-12 04:33N 37°49' W 122°19'0 0.0
2017-Jan-12 03:33N 37°49' W 122°19'1 0.8
2017-Jan-12 02:33N 37°49' W 122°20'0 0.2
2017-Jan-12 01:33N 37°49' W 122°20'1 0.9
2017-Jan-12 00:33N 37°49' W 122°19'0 0.0
2017-Jan-11 23:33N 37°49' W 122°19'0 0.0
2017-Jan-11 22:33N 37°49' W 122°19'0 0.0
2017-Jan-11 21:33N 37°49' W 122°19'2 2.5
2017-Jan-11 20:34N 37°50' W 122°22'5 5.1
2017-Jan-11 19:34N 37°55' W 122°22'2 1.6
2017-Jan-11 18:33N 37°54' W 122°24'0 0.2
2017-Jan-11 17:33N 37°54' W 122°24'1 1.3
2017-Jan-11 16:33N 37°55' W 122°22'1 0.8
2017-Jan-11 15:32N 37°55' W 122°22'1 0.5
2017-Jan-11 14:33N 37°55' W 122°22'0 0.3
2017-Jan-11 13:33N 37°55' W 122°22'0 0.0
2017-Jan-11 12:33N 37°55' W 122°22'0 0.0
2017-Jan-11 11:33N 37°55' W 122°22'3 3.0
2017-Jan-11 10:33N 37°53' W 122°24'7 6.9
2017-Jan-11 09:34N 37°48' W 122°19'2 1.6
2017-Jan-11 08:33N 37°49' W 122°19'0 0.0
2017-Jan-11 07:33N 37°49' W 122°19'0 0.0
2017-Jan-11 06:33N 37°49' W 122°19'0 0.0
2017-Jan-11 05:33N 37°49' W 122°19'0 0.0
2017-Jan-11 04:33N 37°49' W 122°19'0 0.0
2017-Jan-11 03:33N 37°49' W 122°19'0 0.0
2017-Jan-11 02:33N 37°49' W 122°19'0 0.0
2017-Jan-11 01:33N 37°49' W 122°19'2 1.8
2017-Jan-11 00:33N 37°48' W 122°18'0 0.1
2017-Jan-10 23:33N 37°48' W 122°18'3 3.0
2017-Jan-10 22:33N 37°48' W 122°22'3 2.6
2017-Jan-10 21:34N 37°49' W 122°19'0 0.0
2017-Jan-10 20:33N 37°49' W 122°19'0 0.0
2017-Jan-10 19:33N 37°49' W 122°19'0 0.0
2017-Jan-10 18:33N 37°49' W 122°19'0 0.0
2017-Jan-10 17:33N 37°49' W 122°19'0 0.0
2017-Jan-10 16:33N 37°49' W 122°19'0 0.0
2017-Jan-10 15:33N 37°49' W 122°19'1 0.5
2017-Jan-10 14:33N 37°49' W 122°19'1 1.4
2017-Jan-10 13:33N 37°48' W 122°21'1 0.8
2017-Jan-10 12:34N 37°48' W 122°20'1 1.0
2017-Jan-10 11:33N 37°48' W 122°21'  

Dump ship's entire track history